Terminal Aerodrome Forecast
Issued by NWS King Salmon, AK

Home | Current Version | Previous Version | Text Only | Print | Product List | Glossary On
Versions: 1 2 3 4 5 6 7 8 9 10 11 12
000
FTAK31 PANC 250530
TAFAKN
TAF
PAKN 250530Z 2506/2606 13010KT P6SM VCSH FEW050 BKN090
     FM250800 10010KT P6SM SCT100 BKN200
     FM251700 10015G25KT P6SM VCSH BKN070 OVC110
     FM252200 09025G35KT P6SM BKN060=

USA.gov is the U.S. government's official web portal to all federal, state and local government web resources and services.